LiveATC.Net - Listen to live air traffic control over the Internet!


ICAO: PAMR  IATA: MRI   Airport: Merrill Field Airport
City: Anchorage   State/Province: Alaska
Country: United States   Continent: North America
PAMR METAR Weather: PAMR 190753Z 00000KT 10SM CLR 07/M03 A3019 RMK AO2 SLP226 T00671028
PAMR Flight Activity (FlightAware)
PAMR Webcam:  (Airport Webcams) 
PAMR Airport Info   (iFlightPlanner)
PAMR VFR Sectional Chart   (iFlightPlanner) 
PAMR IFR Low Chart   (iFlightPlanner) 

PAMR Ground/Tower
Feed Status: UP   Listeners: 0
Listen in your browser - HTML5 player (in browser, HTML5)
Click here to listen with your own player (launches your MP3 player)
Archive Access: PAMR Ground/Tower
FacilityFrequency
Merrill Ground121.700
Merrill Tower126.000
Feed sponsored by: SkyTrek Alaska Flight Training

NOTICE

Unauthorized use prohibited. See LiveATC.net Terms of Service


Airport/ARTCC Code
Frequency Search
(e.g., 124.400, 128.75)
Site-wide search
 


Browse Feeds
Top 50 Feeds
HF Oceanic Feeds
Coverage Map
Bad Weather Areas

LiveATC FAQ
Offer LiveATC feed
Contact LiveATC.net
Press Inquiries

LiveATC on iPhone
LiveATC on Android

Windows Phone
Windows 8/10

LiveATC Mobile
(Mobile browser)

ATC Audio Archives
Interesting Recordings

LiveATC Forums


Home Page
About LiveATC.net
Make a Donation
Terms of Use
Privacy Policy

Canadian Air Freqs

AIRMETs/SIGMETs

FAA Airport Status
Nat'l Airspace Status
Arrival Demand Charts


Server Software By:
Icecast.org
Liquidsoap